sensor_id;sensor_type;location;lat;lon;timestamp;pressure;altitude;pressure_sealevel;temperature;humidity
11349;BME280;5729;43.570;27.826;2022-10-16T00:00:44;99860.09;;;10.42;100.00
11349;BME280;5729;43.570;27.826;2022-10-16T00:03:10;99867.06;;;10.43;100.00
11349;BME280;5729;43.570;27.826;2022-10-16T00:05:43;99866.94;;;10.40;100.00
11349;BME280;5729;43.570;27.826;2022-10-16T00:08:10;99869.19;;;10.38;100.00
11349;BME280;5729;43.570;27.826;2022-10-16T00:10:36;99865.91;;;10.32;100.00
11349;BME280;5729;43.570;27.826;2022-10-16T00:13:03;99863.56;;;10.31;100.00
11349;BME280;5729;43.570;27.826;2022-10-16T00:15:28;99866.03;;;10.24;100.00
11349;BME280;5729;43.570;27.826;2022-10-16T00:17:54;99865.13;;;10.19;100.00
11349;BME280;5729;43.570;27.826;2022-10-16T00:20:19;99865.75;;;10.16;100.00
11349;BME280;5729;43.570;27.826;2022-10-16T00:22:45;99868.00;;;10.14;100.00
11349;BME280;5729;43.570;27.826;2022-10-16T00:25:11;99865.31;;;10.14;100.00
11349;BME280;5729;43.570;27.826;2022-10-16T00:27:36;99870.13;;;10.09;100.00
11349;BME280;5729;43.570;27.826;2022-10-16T00:30:02;99868.44;;;10.04;100.00
11349;BME280;5729;43.570;27.826;2022-10-16T00:32:28;99873.81;;;10.04;100.00
11349;BME280;5729;43.570;27.826;2022-10-16T00:34:54;99873.81;;;10.04;100.00
11349;BME280;5729;43.570;27.826;2022-10-16T00:37:20;99849.56;;;9.92;100.00
11349;BME280;5729;43.570;27.826;2022-10-16T00:39:46;99881.78;;;10.01;100.00
11349;BME280;5729;43.570;27.826;2022-10-16T00:42:18;99878.47;;;9.95;100.00
11349;BME280;5729;43.570;27.826;2022-10-16T00:44:56;99877.47;;;9.88;100.00
11349;BME280;5729;43.570;27.826;2022-10-16T00:50:22;99861.41;;;9.79;100.00
11349;BME280;5729;43.570;27.826;2022-10-16T00:52:50;99877.88;;;9.77;100.00
11349;BME280;5729;43.570;27.826;2022-10-16T00:55:17;99874.06;;;9.78;100.00
11349;BME280;5729;43.570;27.826;2022-10-16T00:57:43;99882.66;;;9.72;100.00
11349;BME280;5729;43.570;27.826;2022-10-16T01:00:12;99882.50;;;9.56;100.00
11349;BME280;5729;43.570;27.826;2022-10-16T01:02:38;99892.53;;;9.68;100.00
11349;BME280;5729;43.570;27.826;2022-10-16T01:05:04;99890.63;;;9.68;100.00
11349;BME280;5729;43.570;27.826;2022-10-16T01:13:18;99896.16;;;9.51;100.00
11349;BME280;5729;43.570;27.826;2022-10-16T01:15:51;99902.00;;;9.53;100.00
11349;BME280;5729;43.570;27.826;2022-10-16T01:18:26;99909.94;;;9.50;100.00
11349;BME280;5729;43.570;27.826;2022-10-16T01:28:41;99903.25;;;9.35;100.00
11349;BME280;5729;43.570;27.826;2022-10-16T01:31:13;99893.00;;;9.28;100.00
11349;BME280;5729;43.570;27.826;2022-10-16T01:33:44;99914.44;;;9.37;100.00
11349;BME280;5729;43.570;27.826;2022-10-16T01:36:21;99897.47;;;9.24;100.00
11349;BME280;5729;43.570;27.826;2022-10-16T01:38:52;99920.34;;;9.30;100.00
11349;BME280;5729;43.570;27.826;2022-10-16T01:41:33;99919.09;;;9.28;100.00
11349;BME280;5729;43.570;27.826;2022-10-16T01:44:10;99918.69;;;9.17;100.00
11349;BME280;5729;43.570;27.826;2022-10-16T01:46:38;99928.28;;;9.27;100.00
11349;BME280;5729;43.570;27.826;2022-10-16T01:49:06;99922.47;;;9.25;100.00
11349;BME280;5729;43.570;27.826;2022-10-16T01:51:33;99927.06;;;9.24;100.00
11349;BME280;5729;43.570;27.826;2022-10-16T01:54:01;99926.59;;;9.22;100.00
11349;BME280;5729;43.570;27.826;2022-10-16T01:56:27;99924.81;;;9.26;100.00
11349;BME280;5729;43.570;27.826;2022-10-16T01:59:01;99929.28;;;9.22;100.00
11349;BME280;5729;43.570;27.826;2022-10-16T02:01:31;99930.06;;;9.23;100.00
11349;BME280;5729;43.570;27.826;2022-10-16T02:04:02;99933.25;;;9.16;100.00
11349;BME280;5729;43.570;27.826;2022-10-16T02:06:29;99939.31;;;9.13;100.00
11349;BME280;5729;43.570;27.826;2022-10-16T02:08:55;99934.84;;;9.17;100.00
11349;BME280;5729;43.570;27.826;2022-10-16T02:11:20;99938.31;;;9.18;100.00
11349;BME280;5729;43.570;27.826;2022-10-16T02:13:55;99938.06;;;9.10;100.00
11349;BME280;5729;43.570;27.826;2022-10-16T02:16:36;99942.31;;;9.12;100.00
11349;BME280;5729;43.570;27.826;2022-10-16T02:19:03;99942.03;;;9.04;100.00
11349;BME280;5729;43.570;27.826;2022-10-16T02:24:08;99958.78;;;9.10;100.00
11349;BME280;5729;43.570;27.826;2022-10-16T02:26:42;99959.41;;;9.07;100.00
11349;BME280;5729;43.570;27.826;2022-10-16T02:29:12;99954.25;;;9.02;100.00
11349;BME280;5729;43.570;27.826;2022-10-16T02:31:42;99946.09;;;8.81;100.00
11349;BME280;5729;43.570;27.826;2022-10-16T02:34:10;99962.53;;;8.88;100.00
11349;BME280;5729;43.570;27.826;2022-10-16T02:36:37;99948.78;;;8.81;100.00
11349;BME280;5729;43.570;27.826;2022-10-16T02:39:04;99938.22;;;8.76;100.00
11349;BME280;5729;43.570;27.826;2022-10-16T02:41:31;99969.00;;;8.87;100.00
11349;BME280;5729;43.570;27.826;2022-10-16T02:43:57;99957.31;;;8.83;100.00
11349;BME280;5729;43.570;27.826;2022-10-16T02:46:22;99950.34;;;8.82;100.00
11349;BME280;5729;43.570;27.826;2022-10-16T02:48:48;99955.63;;;8.79;100.00
11349;BME280;5729;43.570;27.826;2022-10-16T02:51:13;99958.47;;;8.73;100.00
11349;BME280;5729;43.570;27.826;2022-10-16T02:53:39;99936.22;;;8.64;100.00
11349;BME280;5729;43.570;27.826;2022-10-16T02:56:04;99957.81;;;8.77;100.00
11349;BME280;5729;43.570;27.826;2022-10-16T02:58:30;99960.69;;;8.71;100.00
11349;BME280;5729;43.570;27.826;2022-10-16T03:00:55;99961.63;;;8.76;100.00
11349;BME280;5729;43.570;27.826;2022-10-16T03:03:21;99948.72;;;8.60;100.00
11349;BME280;5729;43.570;27.826;2022-10-16T03:05:46;99965.72;;;8.73;100.00
11349;BME280;5729;43.570;27.826;2022-10-16T03:08:13;99967.63;;;8.72;100.00
11349;BME280;5729;43.570;27.826;2022-10-16T03:10:38;99964.25;;;8.46;100.00
11349;BME280;5729;43.570;27.826;2022-10-16T03:13:04;99967.22;;;8.53;100.00
11349;BME280;5729;43.570;27.826;2022-10-16T03:15:29;99960.56;;;8.59;100.00
11349;BME280;5729;43.570;27.826;2022-10-16T03:17:57;99968.00;;;8.62;100.00
11349;BME280;5729;43.570;27.826;2022-10-16T03:20:24;99966.59;;;8.56;100.00
11349;BME280;5729;43.570;27.826;2022-10-16T03:22:49;99966.25;;;8.58;100.00
11349;BME280;5729;43.570;27.826;2022-10-16T03:25:14;99966.59;;;8.56;100.00
11349;BME280;5729;43.570;27.826;2022-10-16T03:27:40;99968.00;;;8.62;100.00
11349;BME280;5729;43.570;27.826;2022-10-16T03:30:06;99965.66;;;8.52;100.00
11349;BME280;5729;43.570;27.826;2022-10-16T03:32:32;99976.06;;;8.62;100.00
11349;BME280;5729;43.570;27.826;2022-10-16T03:34:57;99967.50;;;8.69;100.00
11349;BME280;5729;43.570;27.826;2022-10-16T03:37:23;99970.63;;;8.71;100.00
11349;BME280;5729;43.570;27.826;2022-10-16T03:39:48;99961.34;;;8.60;100.00
11349;BME280;5729;43.570;27.826;2022-10-16T03:42:14;99970.84;;;8.66;100.00
11349;BME280;5729;43.570;27.826;2022-10-16T03:44:39;99973.06;;;8.55;100.00
11349;BME280;5729;43.570;27.826;2022-10-16T03:47:05;99978.47;;;8.38;100.00
11349;BME280;5729;43.570;27.826;2022-10-16T03:49:30;99983.19;;;8.50;100.00
11349;BME280;5729;43.570;27.826;2022-10-16T03:51:56;99976.44;;;8.44;100.00
11349;BME280;5729;43.570;27.826;2022-10-16T03:54:21;99974.81;;;8.51;100.00
11349;BME280;5729;43.570;27.826;2022-10-16T03:56:47;99976.88;;;8.54;100.00
11349;BME280;5729;43.570;27.826;2022-10-16T03:59:13;99972.78;;;8.40;100.00
11349;BME280;5729;43.570;27.826;2022-10-16T04:01:39;99985.28;;;8.44;100.00
11349;BME280;5729;43.570;27.826;2022-10-16T04:04:04;99988.44;;;8.37;100.00
11349;BME280;5729;43.570;27.826;2022-10-16T04:06:30;99992.06;;;8.24;100.00
11349;BME280;5729;43.570;27.826;2022-10-16T04:08:55;99992.09;;;8.33;100.00
11349;BME280;5729;43.570;27.826;2022-10-16T04:11:21;100000.28;;;8.28;100.00
11349;BME280;5729;43.570;27.826;2022-10-16T04:13:46;99993.97;;;8.24;100.00
11349;BME280;5729;43.570;27.826;2022-10-16T04:16:12;99998.09;;;8.21;100.00
11349;BME280;5729;43.570;27.826;2022-10-16T04:18:37;99993.19;;;8.23;100.00
11349;BME280;5729;43.570;27.826;2022-10-16T04:21:06;99976.75;;;8.16;100.00
11349;BME280;5729;43.570;27.826;2022-10-16T04:23:32;100004.72;;;8.24;100.00
11349;BME280;5729;43.570;27.826;2022-10-16T04:25:57;99993.19;;;8.23;100.00
11349;BME280;5729;43.570;27.826;2022-10-16T04:28:23;99977.53;;;8.25;100.00
11349;BME280;5729;43.570;27.826;2022-10-16T04:30:48;99998.84;;;8.39;100.00
11349;BME280;5729;43.570;27.826;2022-10-16T04:33:14;99989.06;;;8.43;100.00
11349;BME280;5729;43.570;27.826;2022-10-16T04:35:39;99989.09;;;8.34;100.00
11349;BME280;5729;43.570;27.826;2022-10-16T04:38:05;99988.25;;;8.25;100.00
11349;BME280;5729;43.570;27.826;2022-10-16T04:40:30;99985.44;;;8.39;100.00
11349;BME280;5729;43.570;27.826;2022-10-16T04:43:01;99993.31;;;8.35;100.00
11349;BME280;5729;43.570;27.826;2022-10-16T04:45:26;99993.66;;;8.34;100.00
11349;BME280;5729;43.570;27.826;2022-10-16T04:47:51;99994.28;;;8.40;100.00
11349;BME280;5729;43.570;27.826;2022-10-16T04:50:17;99994.59;;;8.21;100.00
11349;BME280;5729;43.570;27.826;2022-10-16T04:52:42;99998.25;;;8.33;100.00
11349;BME280;5729;43.570;27.826;2022-10-16T04:55:08;100001.56;;;8.22;100.00
11349;BME280;5729;43.570;27.826;2022-10-16T04:57:33;100007.41;;;8.24;100.00
11349;BME280;5729;43.570;27.826;2022-10-16T04:59:59;100001.06;;;8.28;100.00
11349;BME280;5729;43.570;27.826;2022-10-16T05:02:24;99996.47;;;8.29;100.00
11349;BME280;5729;43.570;27.826;2022-10-16T05:04:51;100006.13;;;8.30;100.00
11349;BME280;5729;43.570;27.826;2022-10-16T05:07:16;100009.91;;;8.29;100.00
11349;BME280;5729;43.570;27.826;2022-10-16T05:09:42;100008.63;;;8.26;100.00
11349;BME280;5729;43.570;27.826;2022-10-16T05:12:07;100001.72;;;8.17;100.00
11349;BME280;5729;43.570;27.826;2022-10-16T05:14:33;100021.13;;;8.31;100.00
11349;BME280;5729;43.570;27.826;2022-10-16T05:17:00;100026.34;;;8.36;100.00
11349;BME280;5729;43.570;27.826;2022-10-16T05:19:25;100029.38;;;8.34;100.00
11349;BME280;5729;43.570;27.826;2022-10-16T05:21:51;100033.31;;;8.46;100.00
11349;BME280;5729;43.570;27.826;2022-10-16T05:24:16;100035.53;;;8.44;100.00
11349;BME280;5729;43.570;27.826;2022-10-16T05:26:42;100032.53;;;8.45;100.00
11349;BME280;5729;43.570;27.826;2022-10-16T05:29:08;100027.78;;;8.42;100.00
11349;BME280;5729;43.570;27.826;2022-10-16T05:31:34;100045.75;;;8.59;100.00
11349;BME280;5729;43.570;27.826;2022-10-16T05:34:00;100050.22;;;8.46;100.00
11349;BME280;5729;43.570;27.826;2022-10-16T05:36:25;100052.41;;;8.61;100.00
11349;BME280;5729;43.570;27.826;2022-10-16T05:38:51;100051.31;;;8.54;100.00
11349;BME280;5729;43.570;27.826;2022-10-16T05:41:17;100058.25;;;8.63;100.00
11349;BME280;5729;43.570;27.826;2022-10-16T05:43:47;100040.88;;;8.52;100.00
11349;BME280;5729;43.570;27.826;2022-10-16T05:46:13;100058.84;;;8.78;100.00
11349;BME280;5729;43.570;27.826;2022-10-16T05:48:38;100063.28;;;8.73;100.00
11349;BME280;5729;43.570;27.826;2022-10-16T05:51:06;100071.00;;;8.84;100.00
11349;BME280;5729;43.570;27.826;2022-10-16T05:53:36;100061.84;;;8.85;100.00
11349;BME280;5729;43.570;27.826;2022-10-16T05:56:03;100062.91;;;8.92;100.00
11349;BME280;5729;43.570;27.826;2022-10-16T05:58:34;100053.28;;;8.83;100.00
11349;BME280;5729;43.570;27.826;2022-10-16T06:01:10;100077.94;;;9.02;100.00
11349;BME280;5729;43.570;27.826;2022-10-16T06:03:36;100085.81;;;9.07;100.00
11349;BME280;5729;43.570;27.826;2022-10-16T06:06:12;100082.97;;;9.12;100.00
11349;BME280;5729;43.570;27.826;2022-10-16T06:08:39;100078.50;;;9.16;100.00
11349;BME280;5729;43.570;27.826;2022-10-16T06:11:07;100076.00;;;9.11;100.00
11349;BME280;5729;43.570;27.826;2022-10-16T06:13:33;100078.19;;;9.18;100.00
11349;BME280;5729;43.570;27.826;2022-10-16T06:15:59;100088.72;;;9.31;100.00
11349;BME280;5729;43.570;27.826;2022-10-16T06:18:26;100083.50;;;9.35;100.00
11349;BME280;5729;43.570;27.826;2022-10-16T06:20:52;100090.41;;;9.44;100.00
11349;BME280;5729;43.570;27.826;2022-10-16T06:23:18;100084.88;;;9.41;100.00
11349;BME280;5729;43.570;27.826;2022-10-16T06:25:43;100093.84;;;9.54;100.00
11349;BME280;5729;43.570;27.826;2022-10-16T06:28:09;100109.78;;;9.67;100.00
11349;BME280;5729;43.570;27.826;2022-10-16T06:30:35;100112.28;;;9.72;100.00
11349;BME280;5729;43.570;27.826;2022-10-16T06:33:00;100111.47;;;9.72;100.00
11349;BME280;5729;43.570;27.826;2022-10-16T06:35:25;100112.19;;;9.90;100.00
11349;BME280;5729;43.570;27.826;2022-10-16T06:37:52;100108.31;;;9.99;100.00
11349;BME280;5729;43.570;27.826;2022-10-16T06:40:18;100095.03;;;9.94;100.00
11349;BME280;5729;43.570;27.826;2022-10-16T06:42:43;100112.03;;;10.15;100.00
11349;BME280;5729;43.570;27.826;2022-10-16T06:45:09;100104.56;;;10.21;100.00
11349;BME280;5729;43.570;27.826;2022-10-16T06:47:35;100101.13;;;10.33;100.00
11349;BME280;5729;43.570;27.826;2022-10-16T06:50:00;100096.84;;;10.32;100.00
11349;BME280;5729;43.570;27.826;2022-10-16T06:52:28;100103.66;;;10.50;100.00
11349;BME280;5729;43.570;27.826;2022-10-16T06:54:53;100127.47;;;10.69;100.00
11349;BME280;5729;43.570;27.826;2022-10-16T06:57:19;100120.28;;;10.73;100.00
11349;BME280;5729;43.570;27.826;2022-10-16T06:59:44;100114.69;;;10.78;100.00
11349;BME280;5729;43.570;27.826;2022-10-16T07:02:09;100099.63;;;10.77;100.00
11349;BME280;5729;43.570;27.826;2022-10-16T07:04:36;100125.00;;;11.09;100.00
11349;BME280;5729;43.570;27.826;2022-10-16T07:07:01;100125.47;;;11.23;100.00
11349;BME280;5729;43.570;27.826;2022-10-16T07:09:26;100127.53;;;11.38;100.00
11349;BME280;5729;43.570;27.826;2022-10-16T07:11:52;100126.84;;;11.53;100.00
11349;BME280;5729;43.570;27.826;2022-10-16T07:14:19;100132.25;;;11.65;100.00
11349;BME280;5729;43.570;27.826;2022-10-16T07:16:46;100133.19;;;11.70;100.00
11349;BME280;5729;43.570;27.826;2022-10-16T07:19:12;100131.38;;;11.86;100.00
11349;BME280;5729;43.570;27.826;2022-10-16T07:21:39;100125.44;;;11.92;100.00
11349;BME280;5729;43.570;27.826;2022-10-16T07:24:09;100142.28;;;12.14;100.00
11349;BME280;5729;43.570;27.826;2022-10-16T07:26:36;100137.19;;;12.24;100.00
11349;BME280;5729;43.570;27.826;2022-10-16T07:29:05;100137.16;;;12.36;100.00
11349;BME280;5729;43.570;27.826;2022-10-16T07:31:31;100142.66;;;12.52;100.00
11349;BME280;5729;43.570;27.826;2022-10-16T07:33:58;100125.19;;;12.50;100.00
11349;BME280;5729;43.570;27.826;2022-10-16T07:36:24;100131.66;;;12.73;100.00
11349;BME280;5729;43.570;27.826;2022-10-16T07:38:50;100128.66;;;12.78;100.00
11349;BME280;5729;43.570;27.826;2022-10-16T07:41:17;100136.94;;;12.97;100.00
11349;BME280;5729;43.570;27.826;2022-10-16T07:43:47;100125.91;;;13.18;100.00
11349;BME280;5729;43.570;27.826;2022-10-16T07:46:13;100136.84;;;13.53;100.00
11349;BME280;5729;43.570;27.826;2022-10-16T07:48:39;100129.81;;;14.53;100.00
11349;BME280;5729;43.570;27.826;2022-10-16T07:51:06;100126.81;;;16.18;100.00
11349;BME280;5729;43.570;27.826;2022-10-16T07:53:32;100130.56;;;17.95;100.00
11349;BME280;5729;43.570;27.826;2022-10-16T07:55:59;100131.06;;;19.23;91.94
11349;BME280;5729;43.570;27.826;2022-10-16T07:58:26;100131.06;;;20.08;79.89
11349;BME280;5729;43.570;27.826;2022-10-16T08:00:52;100128.44;;;20.81;71.03
11349;BME280;5729;43.570;27.826;2022-10-16T08:03:17;100137.97;;;21.32;65.50
11349;BME280;5729;43.570;27.826;2022-10-16T08:05:42;100138.28;;;21.86;61.23
11349;BME280;5729;43.570;27.826;2022-10-16T08:08:15;100136.97;;;22.35;59.26
11349;BME280;5729;43.570;27.826;2022-10-16T08:10:41;100137.94;;;22.21;53.67
11349;BME280;5729;43.570;27.826;2022-10-16T08:13:06;100134.78;;;21.37;59.87
11349;BME280;5729;43.570;27.826;2022-10-16T08:15:32;100138.94;;;21.97;57.05
11349;BME280;5729;43.570;27.826;2022-10-16T08:18:02;100152.59;;;22.79;54.38
11349;BME280;5729;43.570;27.826;2022-10-16T08:20:29;100135.06;;;22.96;50.98
11349;BME280;5729;43.570;27.826;2022-10-16T08:22:55;100146.22;;;23.63;48.83
11349;BME280;5729;43.570;27.826;2022-10-16T08:25:22;100143.22;;;24.23;46.92
11349;BME280;5729;43.570;27.826;2022-10-16T08:27:48;100156.19;;;24.43;45.92
11349;BME280;5729;43.570;27.826;2022-10-16T08:30:14;100154.19;;;24.83;41.78
11349;BME280;5729;43.570;27.826;2022-10-16T08:32:40;100141.53;;;24.85;41.60
11349;BME280;5729;43.570;27.826;2022-10-16T08:35:09;100145.38;;;25.08;41.30
11349;BME280;5729;43.570;27.826;2022-10-16T08:37:35;100150.94;;;25.40;39.56
11349;BME280;5729;43.570;27.826;2022-10-16T08:40:01;100143.19;;;25.35;39.48
11349;BME280;5729;43.570;27.826;2022-10-16T08:50:25;100152.91;;;27.51;34.84
11349;BME280;5729;43.570;27.826;2022-10-16T08:52:53;100151.38;;;27.97;34.38
11349;BME280;5729;43.570;27.826;2022-10-16T08:57:56;100155.97;;;26.52;34.64
11349;BME280;5729;43.570;27.826;2022-10-16T09:00:21;100147.41;;;25.56;37.17
11349;BME280;5729;43.570;27.826;2022-10-16T09:06:24;100146.50;;;25.10;37.26
11349;BME280;5729;43.570;27.826;2022-10-16T09:16:37;100155.25;;;29.27;32.04
11349;BME280;5729;43.570;27.826;2022-10-16T09:21:36;100157.75;;;30.20;30.55
11349;BME280;5729;43.570;27.826;2022-10-16T09:24:29;100160.06;;;30.03;28.79
11349;BME280;5729;43.570;27.826;2022-10-16T09:26:55;100160.69;;;30.53;29.38
11349;BME280;5729;43.570;27.826;2022-10-16T09:29:21;100155.72;;;31.41;28.82
11349;BME280;5729;43.570;27.826;2022-10-16T09:31:48;100157.56;;;30.51;28.38
11349;BME280;5729;43.570;27.826;2022-10-16T09:34:34;100117.81;;;31.11;27.60
11349;BME280;5729;43.570;27.826;2022-10-16T09:37:04;100120.50;;;32.15;26.50
11349;BME280;5729;43.570;27.826;2022-10-16T09:39:30;100128.44;;;32.75;25.86
11349;BME280;5729;43.570;27.826;2022-10-16T09:41:56;100135.16;;;33.18;26.11
11349;BME280;5729;43.570;27.826;2022-10-16T09:44:28;100136.50;;;32.29;26.76
11349;BME280;5729;43.570;27.826;2022-10-16T09:47:16;100112.63;;;32.28;26.82
11349;BME280;5729;43.570;27.826;2022-10-16T09:49:59;100130.69;;;33.06;26.10
11349;BME280;5729;43.570;27.826;2022-10-16T09:52:28;100115.88;;;34.22;25.39
11349;BME280;5729;43.570;27.826;2022-10-16T09:54:54;100122.81;;;34.52;23.63
11349;BME280;5729;43.570;27.826;2022-10-16T09:57:21;100121.56;;;33.81;24.94
11349;BME280;5729;43.570;27.826;2022-10-16T09:59:55;100115.63;;;34.20;24.51
11349;BME280;5729;43.570;27.826;2022-10-16T10:02:36;100113.88;;;34.48;23.15
11349;BME280;5729;43.570;27.826;2022-10-16T10:05:22;100125.97;;;34.14;23.94
11349;BME280;5729;43.570;27.826;2022-10-16T10:07:55;100129.47;;;34.09;23.74
11349;BME280;5729;43.570;27.826;2022-10-16T10:10:29;100109.75;;;34.18;23.98
11349;BME280;5729;43.570;27.826;2022-10-16T10:12:55;100130.06;;;34.39;22.97
11349;BME280;5729;43.570;27.826;2022-10-16T10:15:22;100133.28;;;33.65;24.46
11349;BME280;5729;43.570;27.826;2022-10-16T10:20:30;100118.22;;;35.23;22.31
11349;BME280;5729;43.570;27.826;2022-10-16T10:22:58;100121.41;;;34.37;22.60
11349;BME280;5729;43.570;27.826;2022-10-16T10:33:42;100108.56;;;33.78;23.43
11349;BME280;5729;43.570;27.826;2022-10-16T10:36:42;100107.22;;;33.33;23.18
11349;BME280;5729;43.570;27.826;2022-10-16T10:45:02;100098.34;;;33.00;22.95
11349;BME280;5729;43.570;27.826;2022-10-16T10:56:10;100083.53;;;31.91;25.03
11349;BME280;5729;43.570;27.826;2022-10-16T10:58:45;100089.47;;;31.69;25.37
11349;BME280;5729;43.570;27.826;2022-10-16T11:01:17;100085.13;;;32.51;25.02
11349;BME280;5729;43.570;27.826;2022-10-16T11:09:18;100094.47;;;31.56;24.45
11349;BME280;5729;43.570;27.826;2022-10-16T11:11:56;100096.94;;;31.15;25.42
11349;BME280;5729;43.570;27.826;2022-10-16T11:14:28;100100.44;;;31.25;25.63
11349;BME280;5729;43.570;27.826;2022-10-16T11:19:50;100095.09;;;31.60;25.47
11349;BME280;5729;43.570;27.826;2022-10-16T11:22:30;100093.59;;;31.50;24.98
11349;BME280;5729;43.570;27.826;2022-10-16T11:27:52;100071.81;;;30.82;25.48
11349;BME280;5729;43.570;27.826;2022-10-16T11:30:22;100077.38;;;30.40;25.30
11349;BME280;5729;43.570;27.826;2022-10-16T11:33:08;100081.53;;;30.45;26.41
11349;BME280;5729;43.570;27.826;2022-10-16T11:35:48;100076.94;;;31.17;25.78
11349;BME280;5729;43.570;27.826;2022-10-16T11:39:16;100085.84;;;31.30;25.42
11349;BME280;5729;43.570;27.826;2022-10-16T11:41:29;100078.53;;;31.56;25.28
11349;BME280;5729;43.570;27.826;2022-10-16T11:44:15;100082.63;;;31.22;25.63
11349;BME280;5729;43.570;27.826;2022-10-16T11:46:52;100075.94;;;32.06;25.09
11349;BME280;5729;43.570;27.826;2022-10-16T11:49:25;100077.97;;;31.91;25.70
11349;BME280;5729;43.570;27.826;2022-10-16T11:54:49;100085.75;;;30.31;26.13
11349;BME280;5729;43.570;27.826;2022-10-16T11:57:20;100078.47;;;30.33;26.38
11349;BME280;5729;43.570;27.826;2022-10-16T11:59:57;100075.25;;;30.17;26.36
11349;BME280;5729;43.570;27.826;2022-10-16T12:02:50;100075.06;;;29.29;26.23
11349;BME280;5729;43.570;27.826;2022-10-16T12:05:28;100079.91;;;28.88;27.10
11349;BME280;5729;43.570;27.826;2022-10-16T12:10:29;100079.72;;;28.83;27.56
11349;BME280;5729;43.570;27.826;2022-10-16T12:12:57;100061.59;;;28.38;27.98
11349;BME280;5729;43.570;27.826;2022-10-16T12:15:26;100094.63;;;28.24;28.63
11349;BME280;5729;43.570;27.826;2022-10-16T12:17:52;100092.41;;;27.75;28.32
11349;BME280;5729;43.570;27.826;2022-10-16T12:20:22;100103.19;;;27.60;28.15
11349;BME280;5729;43.570;27.826;2022-10-16T12:23:04;100098.13;;;27.21;28.81
11349;BME280;5729;43.570;27.826;2022-10-16T12:25:33;100090.44;;;27.63;30.33
11349;BME280;5729;43.570;27.826;2022-10-16T12:28:26;100092.97;;;27.92;27.99
11349;BME280;5729;43.570;27.826;2022-10-16T12:31:04;100089.56;;;27.53;28.19
11349;BME280;5729;43.570;27.826;2022-10-16T12:33:39;100091.72;;;27.11;28.59
11349;BME280;5729;43.570;27.826;2022-10-16T12:36:15;100089.97;;;27.17;30.41
11349;BME280;5729;43.570;27.826;2022-10-16T12:38:48;100098.88;;;27.59;29.46
11349;BME280;5729;43.570;27.826;2022-10-16T12:41:28;100096.66;;;28.10;29.02
11349;BME280;5729;43.570;27.826;2022-10-16T12:43:54;100081.06;;;27.82;27.77
11349;BME280;5729;43.570;27.826;2022-10-16T12:46:37;100099.28;;;27.70;28.19
11349;BME280;5729;43.570;27.826;2022-10-16T12:49:21;100104.66;;;27.87;28.73
11349;BME280;5729;43.570;27.826;2022-10-16T12:51:48;100104.19;;;27.88;29.06
11349;BME280;5729;43.570;27.826;2022-10-16T12:54:18;100109.22;;;28.02;28.81
11349;BME280;5729;43.570;27.826;2022-10-16T12:59:58;100106.81;;;28.26;27.27
11349;BME280;5729;43.570;27.826;2022-10-16T13:11:23;100094.56;;;24.89;30.85
11349;BME280;5729;43.570;27.826;2022-10-16T13:17:19;100123.38;;;23.66;32.25
11349;BME280;5729;43.570;27.826;2022-10-16T13:20:51;100120.41;;;23.30;33.17
11349;BME280;5729;43.570;27.826;2022-10-16T13:23:19;100111.41;;;23.02;33.60
11349;BME280;5729;43.570;27.826;2022-10-16T13:26:12;100121.22;;;22.73;34.85
11349;BME280;5729;43.570;27.826;2022-10-16T13:28:39;100114.25;;;22.34;35.82
11349;BME280;5729;43.570;27.826;2022-10-16T13:31:05;100112.72;;;21.92;36.38
11349;BME280;5729;43.570;27.826;2022-10-16T13:33:39;100115.75;;;21.64;36.76
11349;BME280;5729;43.570;27.826;2022-10-16T13:36:19;100119.13;;;21.34;37.73
11349;BME280;5729;43.570;27.826;2022-10-16T13:38:45;100119.69;;;21.04;37.49
11349;BME280;5729;43.570;27.826;2022-10-16T13:41:16;100130.06;;;20.72;38.75
11349;BME280;5729;43.570;27.826;2022-10-16T13:43:50;100127.41;;;20.54;39.08
11349;BME280;5729;43.570;27.826;2022-10-16T13:46:21;100127.09;;;20.38;39.29
11349;BME280;5729;43.570;27.826;2022-10-16T13:49:03;100132.59;;;20.16;39.88
11349;BME280;5729;43.570;27.826;2022-10-16T13:51:30;100121.28;;;20.04;40.54
11349;BME280;5729;43.570;27.826;2022-10-16T13:53:56;100131.50;;;19.82;41.06
11349;BME280;5729;43.570;27.826;2022-10-16T13:56:25;100124.84;;;19.65;41.32
11349;BME280;5729;43.570;27.826;2022-10-16T13:59:04;100126.84;;;19.50;41.06
11349;BME280;5729;43.570;27.826;2022-10-16T14:01:51;100133.03;;;19.30;41.46
11349;BME280;5729;43.570;27.826;2022-10-16T14:04:19;100124.81;;;19.12;41.95
11349;BME280;5729;43.570;27.826;2022-10-16T14:06:46;100109.53;;;18.90;43.35
11349;BME280;5729;43.570;27.826;2022-10-16T14:09:25;100132.22;;;19.04;44.31
11349;BME280;5729;43.570;27.826;2022-10-16T14:12:03;100128.69;;;18.93;44.17
11349;BME280;5729;43.570;27.826;2022-10-16T14:14:42;100131.03;;;18.95;44.94
11349;BME280;5729;43.570;27.826;2022-10-16T14:17:20;100138.84;;;18.93;45.70
11349;BME280;5729;43.570;27.826;2022-10-16T14:19:50;100141.91;;;18.80;44.58
11349;BME280;5729;43.570;27.826;2022-10-16T14:22:39;100150.84;;;18.70;45.40
11349;BME280;5729;43.570;27.826;2022-10-16T14:30:58;100158.88;;;18.42;47.79
11349;BME280;5729;43.570;27.826;2022-10-16T14:33:32;100154.16;;;18.28;48.02
11349;BME280;5729;43.570;27.826;2022-10-16T14:36:13;100145.81;;;18.07;49.33
11349;BME280;5729;43.570;27.826;2022-10-16T14:38:40;100155.19;;;18.09;49.80
11349;BME280;5729;43.570;27.826;2022-10-16T14:41:06;100154.34;;;17.98;49.98
11349;BME280;5729;43.570;27.826;2022-10-16T14:43:37;100155.84;;;17.89;51.07
11349;BME280;5729;43.570;27.826;2022-10-16T14:46:13;100154.16;;;17.70;51.52
11349;BME280;5729;43.570;27.826;2022-10-16T14:48:51;100154.00;;;17.56;52.59
11349;BME280;5729;43.570;27.826;2022-10-16T14:51:20;100158.22;;;17.50;53.56